sensor_id;sensor_type;location;lat;lon;timestamp;P1;durP1;ratioP1;P2;durP2;ratioP2
30472;SDS011;17263;48.160;11.452;2023-10-31T00:02:22;1.33;;;1.20;;
30472;SDS011;17263;48.160;11.452;2023-10-31T00:04:48;1.40;;;1.20;;
30472;SDS011;17263;48.160;11.452;2023-10-31T00:07:14;1.33;;;1.07;;
30472;SDS011;17263;48.160;11.452;2023-10-31T00:09:40;2.67;;;1.10;;
30472;SDS011;17263;48.160;11.452;2023-10-31T00:12:06;1.00;;;0.90;;
30472;SDS011;17263;48.160;11.452;2023-10-31T00:14:32;1.50;;;1.00;;
30472;SDS011;17263;48.160;11.452;2023-10-31T00:16:58;1.10;;;0.77;;
30472;SDS011;17263;48.160;11.452;2023-10-31T00:19:24;0.87;;;0.87;;
30472;SDS011;17263;48.160;11.452;2023-10-31T00:21:50;3.43;;;0.80;;
30472;SDS011;17263;48.160;11.452;2023-10-31T00:24:16;1.20;;;0.80;;
30472;SDS011;17263;48.160;11.452;2023-10-31T00:26:42;0.73;;;0.57;;
30472;SDS011;17263;48.160;11.452;2023-10-31T00:29:08;2.00;;;0.70;;
30472;SDS011;17263;48.160;11.452;2023-10-31T00:31:35;0.57;;;0.50;;
30472;SDS011;17263;48.160;11.452;2023-10-31T00:34:01;0.50;;;0.50;;
30472;SDS011;17263;48.160;11.452;2023-10-31T00:36:27;0.60;;;0.60;;
30472;SDS011;17263;48.160;11.452;2023-10-31T00:38:53;0.40;;;0.40;;
30472;SDS011;17263;48.160;11.452;2023-10-31T00:41:19;0.60;;;0.60;;
30472;SDS011;17263;48.160;11.452;2023-10-31T00:43:45;0.60;;;0.60;;
30472;SDS011;17263;48.160;11.452;2023-10-31T00:46:11;1.00;;;0.50;;
30472;SDS011;17263;48.160;11.452;2023-10-31T00:48:37;1.30;;;0.50;;
30472;SDS011;17263;48.160;11.452;2023-10-31T00:51:03;0.40;;;0.40;;
30472;SDS011;17263;48.160;11.452;2023-10-31T00:53:30;0.77;;;0.67;;
30472;SDS011;17263;48.160;11.452;2023-10-31T00:55:57;0.50;;;0.50;;
30472;SDS011;17263;48.160;11.452;2023-10-31T00:58:23;0.50;;;0.50;;
30472;SDS011;17263;48.160;11.452;2023-10-31T01:00:49;0.40;;;0.40;;
30472;SDS011;17263;48.160;11.452;2023-10-31T01:03:15;0.83;;;0.50;;
30472;SDS011;17263;48.160;11.452;2023-10-31T01:05:41;0.30;;;0.30;;
30472;SDS011;17263;48.160;11.452;2023-10-31T01:08:07;0.50;;;0.40;;
30472;SDS011;17263;48.160;11.452;2023-10-31T01:10:33;0.53;;;0.40;;
30472;SDS011;17263;48.160;11.452;2023-10-31T01:12:59;0.40;;;0.40;;
30472;SDS011;17263;48.160;11.452;2023-10-31T01:15:25;0.50;;;0.47;;
30472;SDS011;17263;48.160;11.452;2023-10-31T01:17:51;1.10;;;0.40;;
30472;SDS011;17263;48.160;11.452;2023-10-31T01:20:17;0.50;;;0.50;;
30472;SDS011;17263;48.160;11.452;2023-10-31T01:22:43;0.27;;;0.27;;
30472;SDS011;17263;48.160;11.452;2023-10-31T01:25:09;0.70;;;0.60;;
30472;SDS011;17263;48.160;11.452;2023-10-31T01:27:36;0.50;;;0.50;;
30472;SDS011;17263;48.160;11.452;2023-10-31T01:30:02;0.40;;;0.40;;
30472;SDS011;17263;48.160;11.452;2023-10-31T01:32:28;0.30;;;0.30;;
30472;SDS011;17263;48.160;11.452;2023-10-31T01:34:54;1.10;;;0.40;;
30472;SDS011;17263;48.160;11.452;2023-10-31T01:37:20;0.60;;;0.60;;
30472;SDS011;17263;48.160;11.452;2023-10-31T01:39:47;0.87;;;0.57;;
30472;SDS011;17263;48.160;11.452;2023-10-31T01:42:14;0.50;;;0.50;;
30472;SDS011;17263;48.160;11.452;2023-10-31T01:44:43;0.40;;;0.40;;
30472;SDS011;17263;48.160;11.452;2023-10-31T01:47:09;0.50;;;0.40;;
30472;SDS011;17263;48.160;11.452;2023-10-31T01:49:35;0.50;;;0.20;;
30472;SDS011;17263;48.160;11.452;2023-10-31T01:52:05;0.30;;;0.30;;
30472;SDS011;17263;48.160;11.452;2023-10-31T01:54:32;0.50;;;0.33;;
30472;SDS011;17263;48.160;11.452;2023-10-31T01:57:00;0.30;;;0.30;;
30472;SDS011;17263;48.160;11.452;2023-10-31T01:59:26;0.67;;;0.40;;
30472;SDS011;17263;48.160;11.452;2023-10-31T02:01:54;0.50;;;0.40;;
30472;SDS011;17263;48.160;11.452;2023-10-31T02:04:21;0.33;;;0.30;;
30472;SDS011;17263;48.160;11.452;2023-10-31T02:06:47;0.30;;;0.30;;
30472;SDS011;17263;48.160;11.452;2023-10-31T02:09:13;0.73;;;0.37;;
30472;SDS011;17263;48.160;11.452;2023-10-31T02:11:39;1.70;;;0.57;;
30472;SDS011;17263;48.160;11.452;2023-10-31T02:14:05;0.63;;;0.30;;
30472;SDS011;17263;48.160;11.452;2023-10-31T02:16:31;0.50;;;0.30;;
30472;SDS011;17263;48.160;11.452;2023-10-31T02:18:57;0.27;;;0.20;;
30472;SDS011;17263;48.160;11.452;2023-10-31T02:21:23;0.47;;;0.30;;
30472;SDS011;17263;48.160;11.452;2023-10-31T02:24:03;0.43;;;0.37;;
30472;SDS011;17263;48.160;11.452;2023-10-31T02:26:30;0.30;;;0.20;;
30472;SDS011;17263;48.160;11.452;2023-10-31T02:29:00;0.83;;;0.50;;
30472;SDS011;17263;48.160;11.452;2023-10-31T02:31:26;0.60;;;0.40;;
30472;SDS011;17263;48.160;11.452;2023-10-31T02:33:53;0.70;;;0.30;;
30472;SDS011;17263;48.160;11.452;2023-10-31T02:36:19;0.57;;;0.20;;
30472;SDS011;17263;48.160;11.452;2023-10-31T02:38:46;0.47;;;0.30;;
30472;SDS011;17263;48.160;11.452;2023-10-31T02:41:12;0.83;;;0.40;;
30472;SDS011;17263;48.160;11.452;2023-10-31T02:43:38;1.60;;;0.43;;
30472;SDS011;17263;48.160;11.452;2023-10-31T02:46:05;0.83;;;0.27;;
30472;SDS011;17263;48.160;11.452;2023-10-31T02:48:31;0.53;;;0.20;;
30472;SDS011;17263;48.160;11.452;2023-10-31T02:51:06;0.30;;;0.30;;
30472;SDS011;17263;48.160;11.452;2023-10-31T02:53:33;0.60;;;0.23;;
30472;SDS011;17263;48.160;11.452;2023-10-31T02:56:03;0.40;;;0.40;;
30472;SDS011;17263;48.160;11.452;2023-10-31T02:58:29;0.30;;;0.30;;
30472;SDS011;17263;48.160;11.452;2023-10-31T03:00:55;0.53;;;0.20;;
30472;SDS011;17263;48.160;11.452;2023-10-31T03:03:21;0.20;;;0.13;;
30472;SDS011;17263;48.160;11.452;2023-10-31T03:05:47;0.77;;;0.40;;
30472;SDS011;17263;48.160;11.452;2023-10-31T03:08:13;0.20;;;0.20;;
30472;SDS011;17263;48.160;11.452;2023-10-31T03:10:40;0.03;;;0.03;;
30472;SDS011;17263;48.160;11.452;2023-10-31T03:13:07;0.23;;;0.20;;
30472;SDS011;17263;48.160;11.452;2023-10-31T03:15:33;0.20;;;0.20;;
30472;SDS011;17263;48.160;11.452;2023-10-31T03:17:59;0.60;;;0.37;;
30472;SDS011;17263;48.160;11.452;2023-10-31T03:20:25;0.30;;;0.20;;
30472;SDS011;17263;48.160;11.452;2023-10-31T03:22:51;0.30;;;0.20;;
30472;SDS011;17263;48.160;11.452;2023-10-31T03:25:17;0.30;;;0.30;;
30472;SDS011;17263;48.160;11.452;2023-10-31T03:27:43;0.23;;;0.10;;
30472;SDS011;17263;48.160;11.452;2023-10-31T03:30:09;0.30;;;0.27;;
30472;SDS011;17263;48.160;11.452;2023-10-31T03:32:35;0.43;;;0.30;;
30472;SDS011;17263;48.160;11.452;2023-10-31T03:35:01;0.27;;;0.27;;
30472;SDS011;17263;48.160;11.452;2023-10-31T03:37:28;0.10;;;0.10;;
30472;SDS011;17263;48.160;11.452;2023-10-31T03:39:54;0.40;;;0.40;;
30472;SDS011;17263;48.160;11.452;2023-10-31T03:42:20;0.53;;;0.30;;
30472;SDS011;17263;48.160;11.452;2023-10-31T03:44:46;0.70;;;0.33;;
30472;SDS011;17263;48.160;11.452;2023-10-31T03:47:12;0.23;;;0.23;;
30472;SDS011;17263;48.160;11.452;2023-10-31T03:49:39;0.20;;;0.20;;
30472;SDS011;17263;48.160;11.452;2023-10-31T03:52:06;1.47;;;0.27;;
30472;SDS011;17263;48.160;11.452;2023-10-31T03:54:32;0.23;;;0.23;;
30472;SDS011;17263;48.160;11.452;2023-10-31T03:56:58;0.77;;;0.50;;
30472;SDS011;17263;48.160;11.452;2023-10-31T03:59:24;0.20;;;0.20;;
30472;SDS011;17263;48.160;11.452;2023-10-31T04:01:50;0.17;;;0.17;;
30472;SDS011;17263;48.160;11.452;2023-10-31T04:04:16;1.03;;;0.40;;
30472;SDS011;17263;48.160;11.452;2023-10-31T04:06:42;0.47;;;0.40;;
30472;SDS011;17263;48.160;11.452;2023-10-31T04:09:09;0.60;;;0.50;;
30472;SDS011;17263;48.160;11.452;2023-10-31T04:11:35;0.80;;;0.40;;
30472;SDS011;17263;48.160;11.452;2023-10-31T04:14:01;0.70;;;0.60;;
30472;SDS011;17263;48.160;11.452;2023-10-31T04:16:28;1.00;;;0.50;;
30472;SDS011;17263;48.160;11.452;2023-10-31T04:18:54;0.60;;;0.50;;
30472;SDS011;17263;48.160;11.452;2023-10-31T04:21:20;0.63;;;0.40;;
30472;SDS011;17263;48.160;11.452;2023-10-31T04:23:46;1.43;;;0.40;;
30472;SDS011;17263;48.160;11.452;2023-10-31T04:26:12;0.67;;;0.50;;
30472;SDS011;17263;48.160;11.452;2023-10-31T04:28:38;0.30;;;0.30;;
30472;SDS011;17263;48.160;11.452;2023-10-31T04:31:04;0.50;;;0.43;;
30472;SDS011;17263;48.160;11.452;2023-10-31T04:33:30;2.10;;;0.80;;
30472;SDS011;17263;48.160;11.452;2023-10-31T04:35:56;0.83;;;0.70;;
30472;SDS011;17263;48.160;11.452;2023-10-31T04:38:22;1.70;;;0.60;;
30472;SDS011;17263;48.160;11.452;2023-10-31T04:40:48;1.40;;;0.70;;
30472;SDS011;17263;48.160;11.452;2023-10-31T04:43:14;0.57;;;0.50;;
30472;SDS011;17263;48.160;11.452;2023-10-31T04:45:40;1.50;;;0.37;;
30472;SDS011;17263;48.160;11.452;2023-10-31T04:48:07;1.37;;;0.63;;
30472;SDS011;17263;48.160;11.452;2023-10-31T04:50:33;1.60;;;0.80;;
30472;SDS011;17263;48.160;11.452;2023-10-31T04:52:59;1.27;;;0.77;;
30472;SDS011;17263;48.160;11.452;2023-10-31T04:55:25;1.43;;;0.70;;
30472;SDS011;17263;48.160;11.452;2023-10-31T04:57:51;1.13;;;0.70;;
30472;SDS011;17263;48.160;11.452;2023-10-31T05:00:17;2.90;;;1.10;;
30472;SDS011;17263;48.160;11.452;2023-10-31T05:02:43;1.03;;;0.73;;
30472;SDS011;17263;48.160;11.452;2023-10-31T05:05:09;1.13;;;0.83;;
30472;SDS011;17263;48.160;11.452;2023-10-31T05:07:35;0.67;;;0.60;;
30472;SDS011;17263;48.160;11.452;2023-10-31T05:10:01;1.00;;;0.70;;
30472;SDS011;17263;48.160;11.452;2023-10-31T05:12:27;1.97;;;0.70;;
30472;SDS011;17263;48.160;11.452;2023-10-31T05:14:53;1.20;;;0.90;;
30472;SDS011;17263;48.160;11.452;2023-10-31T05:17:19;1.00;;;0.90;;
30472;SDS011;17263;48.160;11.452;2023-10-31T05:19:45;1.20;;;0.90;;
30472;SDS011;17263;48.160;11.452;2023-10-31T05:22:11;0.97;;;0.80;;
30472;SDS011;17263;48.160;11.452;2023-10-31T05:24:37;1.00;;;0.70;;
30472;SDS011;17263;48.160;11.452;2023-10-31T05:27:03;2.63;;;0.77;;
30472;SDS011;17263;48.160;11.452;2023-10-31T05:29:30;2.33;;;1.00;;
30472;SDS011;17263;48.160;11.452;2023-10-31T05:31:56;1.70;;;1.00;;
30472;SDS011;17263;48.160;11.452;2023-10-31T05:34:23;2.73;;;1.10;;
30472;SDS011;17263;48.160;11.452;2023-10-31T05:36:49;1.53;;;0.90;;
30472;SDS011;17263;48.160;11.452;2023-10-31T05:39:15;1.37;;;0.90;;
30472;SDS011;17263;48.160;11.452;2023-10-31T05:41:41;1.20;;;0.90;;
30472;SDS011;17263;48.160;11.452;2023-10-31T05:44:07;1.43;;;1.10;;
30472;SDS011;17263;48.160;11.452;2023-10-31T05:46:37;1.63;;;1.10;;
30472;SDS011;17263;48.160;11.452;2023-10-31T05:49:05;5.20;;;1.47;;
30472;SDS011;17263;48.160;11.452;2023-10-31T05:51:32;4.33;;;1.30;;
30472;SDS011;17263;48.160;11.452;2023-10-31T05:53:59;1.03;;;0.90;;
30472;SDS011;17263;48.160;11.452;2023-10-31T05:56:25;2.23;;;1.23;;
30472;SDS011;17263;48.160;11.452;2023-10-31T05:58:51;2.40;;;1.70;;
30472;SDS011;17263;48.160;11.452;2023-10-31T06:01:17;1.90;;;1.50;;
30472;SDS011;17263;48.160;11.452;2023-10-31T06:03:43;1.20;;;0.97;;
30472;SDS011;17263;48.160;11.452;2023-10-31T06:06:10;3.03;;;0.90;;
30472;SDS011;17263;48.160;11.452;2023-10-31T06:08:38;2.53;;;0.80;;
30472;SDS011;17263;48.160;11.452;2023-10-31T06:11:04;2.50;;;0.83;;
30472;SDS011;17263;48.160;11.452;2023-10-31T06:13:30;1.27;;;0.90;;
30472;SDS011;17263;48.160;11.452;2023-10-31T06:15:57;0.90;;;0.87;;
30472;SDS011;17263;48.160;11.452;2023-10-31T06:18:23;2.50;;;1.10;;
30472;SDS011;17263;48.160;11.452;2023-10-31T06:20:49;2.10;;;0.93;;
30472;SDS011;17263;48.160;11.452;2023-10-31T06:23:15;1.03;;;0.90;;
30472;SDS011;17263;48.160;11.452;2023-10-31T06:25:41;1.63;;;1.10;;
30472;SDS011;17263;48.160;11.452;2023-10-31T06:28:07;3.00;;;1.13;;
30472;SDS011;17263;48.160;11.452;2023-10-31T06:30:34;2.10;;;1.10;;
30472;SDS011;17263;48.160;11.452;2023-10-31T06:33:00;1.63;;;0.93;;
30472;SDS011;17263;48.160;11.452;2023-10-31T06:35:26;1.70;;;1.10;;
30472;SDS011;17263;48.160;11.452;2023-10-31T06:37:54;1.57;;;1.17;;
30472;SDS011;17263;48.160;11.452;2023-10-31T06:40:23;3.33;;;1.27;;
30472;SDS011;17263;48.160;11.452;2023-10-31T06:42:50;2.13;;;1.20;;
30472;SDS011;17263;48.160;11.452;2023-10-31T06:45:16;1.50;;;1.00;;
30472;SDS011;17263;48.160;11.452;2023-10-31T06:47:42;1.50;;;1.10;;
30472;SDS011;17263;48.160;11.452;2023-10-31T06:50:08;1.73;;;1.20;;
30472;SDS011;17263;48.160;11.452;2023-10-31T06:52:35;2.03;;;1.07;;
30472;SDS011;17263;48.160;11.452;2023-10-31T06:55:01;1.63;;;1.40;;
30472;SDS011;17263;48.160;11.452;2023-10-31T06:57:27;1.23;;;1.00;;
30472;SDS011;17263;48.160;11.452;2023-10-31T06:59:53;1.63;;;1.20;;
30472;SDS011;17263;48.160;11.452;2023-10-31T07:02:19;2.60;;;1.33;;
30472;SDS011;17263;48.160;11.452;2023-10-31T07:04:45;1.53;;;1.10;;
30472;SDS011;17263;48.160;11.452;2023-10-31T07:07:11;1.33;;;1.00;;
30472;SDS011;17263;48.160;11.452;2023-10-31T07:09:37;3.50;;;1.20;;
30472;SDS011;17263;48.160;11.452;2023-10-31T07:12:03;3.07;;;1.00;;
30472;SDS011;17263;48.160;11.452;2023-10-31T07:14:29;0.90;;;0.70;;
30472;SDS011;17263;48.160;11.452;2023-10-31T07:16:56;3.57;;;1.30;;
30472;SDS011;17263;48.160;11.452;2023-10-31T07:19:22;2.03;;;0.93;;
30472;SDS011;17263;48.160;11.452;2023-10-31T07:21:48;1.67;;;1.00;;
30472;SDS011;17263;48.160;11.452;2023-10-31T07:24:14;2.77;;;1.03;;
30472;SDS011;17263;48.160;11.452;2023-10-31T07:26:40;2.47;;;0.93;;
30472;SDS011;17263;48.160;11.452;2023-10-31T07:29:06;1.47;;;1.00;;
30472;SDS011;17263;48.160;11.452;2023-10-31T07:31:32;2.20;;;0.97;;
30472;SDS011;17263;48.160;11.452;2023-10-31T07:33:58;1.20;;;0.97;;
30472;SDS011;17263;48.160;11.452;2023-10-31T07:36:24;1.67;;;0.90;;
30472;SDS011;17263;48.160;11.452;2023-10-31T07:38:50;1.27;;;0.97;;
30472;SDS011;17263;48.160;11.452;2023-10-31T07:41:16;1.33;;;0.80;;
30472;SDS011;17263;48.160;11.452;2023-10-31T07:43:42;1.33;;;0.97;;
30472;SDS011;17263;48.160;11.452;2023-10-31T07:46:08;2.63;;;1.20;;
30472;SDS011;17263;48.160;11.452;2023-10-31T07:48:34;1.60;;;0.83;;
30472;SDS011;17263;48.160;11.452;2023-10-31T07:51:01;2.63;;;0.93;;
30472;SDS011;17263;48.160;11.452;2023-10-31T07:53:27;1.33;;;0.83;;
30472;SDS011;17263;48.160;11.452;2023-10-31T07:55:53;2.13;;;1.00;;
30472;SDS011;17263;48.160;11.452;2023-10-31T07:58:19;2.30;;;1.17;;
30472;SDS011;17263;48.160;11.452;2023-10-31T08:00:45;2.00;;;1.07;;
30472;SDS011;17263;48.160;11.452;2023-10-31T08:03:12;2.40;;;1.27;;
30472;SDS011;17263;48.160;11.452;2023-10-31T08:05:38;4.37;;;1.00;;
30472;SDS011;17263;48.160;11.452;2023-10-31T08:08:04;2.58;;;1.20;;
30472;SDS011;17263;48.160;11.452;2023-10-31T08:10:30;3.97;;;1.30;;
30472;SDS011;17263;48.160;11.452;2023-10-31T08:12:56;0.87;;;0.70;;
30472;SDS011;17263;48.160;11.452;2023-10-31T08:15:22;1.67;;;0.83;;
30472;SDS011;17263;48.160;11.452;2023-10-31T08:17:48;0.93;;;0.80;;
30472;SDS011;17263;48.160;11.452;2023-10-31T08:20:14;1.53;;;0.90;;
30472;SDS011;17263;48.160;11.452;2023-10-31T08:22:40;1.87;;;1.00;;
30472;SDS011;17263;48.160;11.452;2023-10-31T08:25:09;1.83;;;0.90;;
30472;SDS011;17263;48.160;11.452;2023-10-31T08:27:35;5.17;;;1.30;;
30472;SDS011;17263;48.160;11.452;2023-10-31T08:30:01;1.30;;;0.93;;
30472;SDS011;17263;48.160;11.452;2023-10-31T08:32:28;3.27;;;1.37;;
30472;SDS011;17263;48.160;11.452;2023-10-31T08:34:54;2.37;;;1.03;;
30472;SDS011;17263;48.160;11.452;2023-10-31T08:37:21;3.23;;;1.30;;
30472;SDS011;17263;48.160;11.452;2023-10-31T08:39:47;1.57;;;0.90;;
30472;SDS011;17263;48.160;11.452;2023-10-31T08:42:13;1.80;;;0.80;;
30472;SDS011;17263;48.160;11.452;2023-10-31T08:44:39;6.07;;;1.20;;
30472;SDS011;17263;48.160;11.452;2023-10-31T08:47:06;1.13;;;0.90;;
30472;SDS011;17263;48.160;11.452;2023-10-31T08:49:32;1.87;;;1.07;;
30472;SDS011;17263;48.160;11.452;2023-10-31T08:51:58;4.13;;;1.27;;
30472;SDS011;17263;48.160;11.452;2023-10-31T08:57:31;1.93;;;1.00;;
30472;SDS011;17263;48.160;11.452;2023-10-31T08:59:59;3.03;;;1.30;;
30472;SDS011;17263;48.160;11.452;2023-10-31T09:02:25;4.30;;;1.20;;
30472;SDS011;17263;48.160;11.452;2023-10-31T09:04:52;3.13;;;1.20;;
30472;SDS011;17263;48.160;11.452;2023-10-31T09:07:18;1.97;;;1.30;;
30472;SDS011;17263;48.160;11.452;2023-10-31T09:09:44;7.00;;;1.50;;
30472;SDS011;17263;48.160;11.452;2023-10-31T09:12:10;4.43;;;1.50;;
30472;SDS011;17263;48.160;11.452;2023-10-31T09:14:36;2.03;;;1.10;;
30472;SDS011;17263;48.160;11.452;2023-10-31T09:17:02;3.73;;;1.20;;
30472;SDS011;17263;48.160;11.452;2023-10-31T09:19:28;3.17;;;1.03;;
30472;SDS011;17263;48.160;11.452;2023-10-31T09:21:55;2.70;;;1.00;;
30472;SDS011;17263;48.160;11.452;2023-10-31T09:24:21;2.43;;;1.10;;
30472;SDS011;17263;48.160;11.452;2023-10-31T09:26:47;1.93;;;0.90;;
30472;SDS011;17263;48.160;11.452;2023-10-31T09:29:13;3.03;;;1.20;;
30472;SDS011;17263;48.160;11.452;2023-10-31T09:31:39;5.37;;;1.50;;
30472;SDS011;17263;48.160;11.452;2023-10-31T09:34:05;5.20;;;1.47;;
30472;SDS011;17263;48.160;11.452;2023-10-31T09:36:32;2.47;;;1.20;;
30472;SDS011;17263;48.160;11.452;2023-10-31T09:39:02;3.83;;;1.20;;
30472;SDS011;17263;48.160;11.452;2023-10-31T09:41:28;2.77;;;1.30;;
30472;SDS011;17263;48.160;11.452;2023-10-31T09:43:57;4.03;;;1.30;;
30472;SDS011;17263;48.160;11.452;2023-10-31T09:46:24;3.10;;;1.13;;
30472;SDS011;17263;48.160;11.452;2023-10-31T09:48:50;3.23;;;1.27;;
30472;SDS011;17263;48.160;11.452;2023-10-31T09:51:17;2.53;;;1.00;;
30472;SDS011;17263;48.160;11.452;2023-10-31T09:53:44;2.40;;;1.10;;
30472;SDS011;17263;48.160;11.452;2023-10-31T09:56:11;2.10;;;0.97;;
30472;SDS011;17263;48.160;11.452;2023-10-31T09:58:37;2.60;;;1.20;;
30472;SDS011;17263;48.160;11.452;2023-10-31T10:01:05;5.20;;;1.50;;
30472;SDS011;17263;48.160;11.452;2023-10-31T10:03:31;1.67;;;1.00;;
30472;SDS011;17263;48.160;11.452;2023-10-31T10:05:57;5.43;;;1.57;;
30472;SDS011;17263;48.160;11.452;2023-10-31T10:08:23;1.90;;;1.00;;
30472;SDS011;17263;48.160;11.452;2023-10-31T10:10:50;5.03;;;1.20;;
30472;SDS011;17263;48.160;11.452;2023-10-31T10:13:17;2.67;;;1.10;;
30472;SDS011;17263;48.160;11.452;2023-10-31T10:15:53;2.43;;;1.00;;
30472;SDS011;17263;48.160;11.452;2023-10-31T10:18:29;3.90;;;1.20;;
30472;SDS011;17263;48.160;11.452;2023-10-31T10:20:57;3.80;;;1.10;;
30472;SDS011;17263;48.160;11.452;2023-10-31T10:23:25;2.00;;;1.20;;
30472;SDS011;17263;48.160;11.452;2023-10-31T10:25:52;4.90;;;1.50;;
30472;SDS011;17263;48.160;11.452;2023-10-31T10:28:19;2.27;;;1.60;;
30472;SDS011;17263;48.160;11.452;2023-10-31T10:30:49;3.70;;;1.40;;
30472;SDS011;17263;48.160;11.452;2023-10-31T10:33:15;2.67;;;1.20;;
30472;SDS011;17263;48.160;11.452;2023-10-31T10:35:42;3.57;;;1.47;;
30472;SDS011;17263;48.160;11.452;2023-10-31T10:38:12;2.00;;;1.30;;
30472;SDS011;17263;48.160;11.452;2023-10-31T10:40:41;2.40;;;1.27;;
30472;SDS011;17263;48.160;11.452;2023-10-31T10:43:13;7.20;;;1.30;;
30472;SDS011;17263;48.160;11.452;2023-10-31T10:45:55;3.30;;;1.57;;
30472;SDS011;17263;48.160;11.452;2023-10-31T10:48:23;3.83;;;1.43;;
30472;SDS011;17263;48.160;11.452;2023-10-31T10:50:59;1.93;;;1.20;;
30472;SDS011;17263;48.160;11.452;2023-10-31T10:53:35;4.63;;;1.37;;
30472;SDS011;17263;48.160;11.452;2023-10-31T10:56:26;3.80;;;1.50;;
30472;SDS011;17263;48.160;11.452;2023-10-31T10:59:02;4.53;;;1.30;;
30472;SDS011;17263;48.160;11.452;2023-10-31T11:01:34;3.00;;;1.30;;
30472;SDS011;17263;48.160;11.452;2023-10-31T11:04:01;3.90;;;1.17;;
30472;SDS011;17263;48.160;11.452;2023-10-31T11:06:29;3.40;;;1.27;;
30472;SDS011;17263;48.160;11.452;2023-10-31T11:08:55;4.00;;;1.27;;
30472;SDS011;17263;48.160;11.452;2023-10-31T11:11:22;2.77;;;1.17;;
30472;SDS011;17263;48.160;11.452;2023-10-31T11:13:50;3.37;;;1.40;;
30472;SDS011;17263;48.160;11.452;2023-10-31T11:16:17;3.83;;;1.13;;
30472;SDS011;17263;48.160;11.452;2023-10-31T11:18:50;1.97;;;1.17;;
30472;SDS011;17263;48.160;11.452;2023-10-31T11:21:16;3.57;;;1.23;;
30472;SDS011;17263;48.160;11.452;2023-10-31T11:23:42;2.00;;;1.17;;
30472;SDS011;17263;48.160;11.452;2023-10-31T11:26:09;2.47;;;1.13;;
30472;SDS011;17263;48.160;11.452;2023-10-31T11:28:35;3.20;;;1.50;;
30472;SDS011;17263;48.160;11.452;2023-10-31T11:31:01;3.83;;;1.17;;
30472;SDS011;17263;48.160;11.452;2023-10-31T11:33:28;2.70;;;1.50;;
30472;SDS011;17263;48.160;11.452;2023-10-31T11:36:01;4.53;;;2.00;;
30472;SDS011;17263;48.160;11.452;2023-10-31T11:38:33;4.03;;;1.40;;
30472;SDS011;17263;48.160;11.452;2023-10-31T11:41:02;3.87;;;1.43;;
30472;SDS011;17263;48.160;11.452;2023-10-31T11:43:35;4.67;;;1.57;;
30472;SDS011;17263;48.160;11.452;2023-10-31T11:46:19;4.70;;;1.80;;
30472;SDS011;17263;48.160;11.452;2023-10-31T11:48:51;3.13;;;1.20;;
30472;SDS011;17263;48.160;11.452;2023-10-31T11:51:18;3.07;;;1.33;;
30472;SDS011;17263;48.160;11.452;2023-10-31T11:53:45;2.60;;;1.00;;
30472;SDS011;17263;48.160;11.452;2023-10-31T11:56:11;3.60;;;1.10;;
30472;SDS011;17263;48.160;11.452;2023-10-31T11:58:37;2.83;;;1.00;;
30472;SDS011;17263;48.160;11.452;2023-10-31T12:01:04;4.30;;;1.67;;
30472;SDS011;17263;48.160;11.452;2023-10-31T12:03:38;2.03;;;1.00;;
30472;SDS011;17263;48.160;11.452;2023-10-31T12:06:06;3.60;;;1.07;;
30472;SDS011;17263;48.160;11.452;2023-10-31T12:08:37;2.60;;;1.23;;
30472;SDS011;17263;48.160;11.452;2023-10-31T12:11:11;3.20;;;1.20;;
30472;SDS011;17263;48.160;11.452;2023-10-31T12:13:42;2.07;;;1.00;;
30472;SDS011;17263;48.160;11.452;2023-10-31T12:16:17;2.20;;;1.10;;
30472;SDS011;17263;48.160;11.452;2023-10-31T12:18:43;2.03;;;1.00;;
30472;SDS011;17263;48.160;11.452;2023-10-31T12:21:09;2.37;;;1.00;;
30472;SDS011;17263;48.160;11.452;2023-10-31T12:23:39;3.63;;;1.00;;
30472;SDS011;17263;48.160;11.452;2023-10-31T12:26:06;1.90;;;1.00;;
30472;SDS011;17263;48.160;11.452;2023-10-31T12:28:32;3.10;;;0.90;;
30472;SDS011;17263;48.160;11.452;2023-10-31T12:30:58;4.10;;;0.80;;
30472;SDS011;17263;48.160;11.452;2023-10-31T12:33:27;1.13;;;0.80;;
30472;SDS011;17263;48.160;11.452;2023-10-31T12:35:57;1.37;;;0.60;;
30472;SDS011;17263;48.160;11.452;2023-10-31T12:38:24;2.50;;;0.90;;
30472;SDS011;17263;48.160;11.452;2023-10-31T12:40:51;4.90;;;0.97;;
30472;SDS011;17263;48.160;11.452;2023-10-31T12:43:18;1.77;;;1.03;;
30472;SDS011;17263;48.160;11.452;2023-10-31T12:45:44;3.40;;;0.80;;
30472;SDS011;17263;48.160;11.452;2023-10-31T12:48:10;3.13;;;1.00;;
30472;SDS011;17263;48.160;11.452;2023-10-31T12:50:37;2.10;;;1.00;;
30472;SDS011;17263;48.160;11.452;2023-10-31T12:53:08;2.33;;;1.10;;
30472;SDS011;17263;48.160;11.452;2023-10-31T12:55:38;2.07;;;0.90;;
30472;SDS011;17263;48.160;11.452;2023-10-31T12:58:05;2.37;;;1.00;;
30472;SDS011;17263;48.160;11.452;2023-10-31T13:00:32;0.80;;;0.50;;
30472;SDS011;17263;48.160;11.452;2023-10-31T13:03:00;1.43;;;0.87;;
30472;SDS011;17263;48.160;11.452;2023-10-31T13:05:28;0.90;;;0.77;;
30472;SDS011;17263;48.160;11.452;2023-10-31T13:07:55;0.50;;;0.50;;
30472;SDS011;17263;48.160;11.452;2023-10-31T13:10:29;2.33;;;0.87;;
30472;SDS011;17263;48.160;11.452;2023-10-31T13:12:55;0.90;;;0.60;;
30472;SDS011;17263;48.160;11.452;2023-10-31T13:15:22;2.50;;;0.90;;
30472;SDS011;17263;48.160;11.452;2023-10-31T13:17:49;0.73;;;0.70;;
30472;SDS011;17263;48.160;11.452;2023-10-31T13:20:16;0.50;;;0.50;;
30472;SDS011;17263;48.160;11.452;2023-10-31T13:22:44;0.93;;;0.60;;
30472;SDS011;17263;48.160;11.452;2023-10-31T13:25:11;0.93;;;0.70;;
30472;SDS011;17263;48.160;11.452;2023-10-31T13:27:38;1.77;;;0.80;;
30472;SDS011;17263;48.160;11.452;2023-10-31T13:30:07;2.03;;;0.90;;
30472;SDS011;17263;48.160;11.452;2023-10-31T13:32:34;0.57;;;0.47;;
30472;SDS011;17263;48.160;11.452;2023-10-31T13:35:00;1.27;;;0.70;;
30472;SDS011;17263;48.160;11.452;2023-10-31T13:37:26;0.60;;;0.60;;
30472;SDS011;17263;48.160;11.452;2023-10-31T13:39:52;2.53;;;0.97;;
30472;SDS011;17263;48.160;11.452;2023-10-31T13:42:18;3.00;;;1.50;;
30472;SDS011;17263;48.160;11.452;2023-10-31T13:44:45;1.40;;;1.20;;
30472;SDS011;17263;48.160;11.452;2023-10-31T13:47:11;1.33;;;0.80;;
30472;SDS011;17263;48.160;11.452;2023-10-31T13:49:37;2.23;;;0.80;;
30472;SDS011;17263;48.160;11.452;2023-10-31T13:52:03;1.00;;;0.70;;
30472;SDS011;17263;48.160;11.452;2023-10-31T13:54:31;1.10;;;1.00;;
30472;SDS011;17263;48.160;11.452;2023-10-31T13:56:58;0.80;;;0.63;;
30472;SDS011;17263;48.160;11.452;2023-10-31T13:59:24;1.20;;;0.80;;
30472;SDS011;17263;48.160;11.452;2023-10-31T14:01:51;1.30;;;0.80;;
30472;SDS011;17263;48.160;11.452;2023-10-31T14:04:17;0.70;;;0.50;;
30472;SDS011;17263;48.160;11.452;2023-10-31T14:06:44;1.80;;;0.93;;
30472;SDS011;17263;48.160;11.452;2023-10-31T14:09:10;0.60;;;0.60;;
30472;SDS011;17263;48.160;11.452;2023-10-31T14:11:38;0.70;;;0.70;;
30472;SDS011;17263;48.160;11.452;2023-10-31T14:14:05;1.30;;;0.87;;
30472;SDS011;17263;48.160;11.452;2023-10-31T14:16:42;2.87;;;0.70;;
30472;SDS011;17263;48.160;11.452;2023-10-31T14:19:10;0.90;;;0.80;;
30472;SDS011;17263;48.160;11.452;2023-10-31T14:21:36;1.33;;;0.90;;
30472;SDS011;17263;48.160;11.452;2023-10-31T14:24:04;1.47;;;1.10;;
30472;SDS011;17263;48.160;11.452;2023-10-31T14:26:31;0.93;;;0.83;;
30472;SDS011;17263;48.160;11.452;2023-10-31T14:29:00;1.67;;;0.90;;
30472;SDS011;17263;48.160;11.452;2023-10-31T14:31:26;3.07;;;0.60;;
30472;SDS011;17263;48.160;11.452;2023-10-31T14:33:52;1.33;;;0.80;;
30472;SDS011;17263;48.160;11.452;2023-10-31T14:36:18;0.80;;;0.80;;